KMDH/MDH METAR and TAF weather

Enter ICAO airport designator
Station Type Date Time Source
KMDH METAR 2021/09/28 02:52 UTC NOAA

KMDH 280252Z AUTO 19007KT 10SM CLR 21/16 A2994 RMK AO2 SLP137 T02060156 51009


Station Type Date Time Source
KMDH Decoded METAR 2021/09/28 02:52 UTC NOAA

SOUTHERN ILLINOIS AIRPORT, IL, United States (KMDH) 37-47N 089-15W 130M
Sep 27, 2021 - 10:52 PM EDT / 2021.09.28 0252 UTC
Wind: from the S (190 degrees) at 8 MPH (7 KT):0
Visibility: 10 mile(s):0
Sky conditions: clear
Temperature: 69.1 F (20.6 C)
Dew Point: 60.1 F (15.6 C)
Relative Humidity: 73%
Pressure (altimeter): 29.94 in. Hg (1013 hPa)
Pressure tendency: 0.03 inches (0.9 hPa) higher than three hours ago
ob: KMDH 280252Z AUTO 19007KT 10SM CLR 21/16 A2994 RMK AO2 SLP137 T02060156 51009
cycle: 3

Station Type Date Time Source
KMDH TAF UTC NOAA

Error!

Example: see airport list